Time;durP1;ratioP1;P1;durP2;ratioP2;P2;SDS_P1;SDS_P2;PMS_P1;PMS_P2;Temp;Humidity;BMP_temperature;BMP_pressure;BME280_temperature;BME280_humidity;BME280_pressure;Samples;Min_cycle;Max_cycle;Signal;HPM_P1;HPM_P2
2020/12/22 16:37:28;;;;;;;;;50.00;37.50;;;;;0.42;56.78;101896.11;488042;108;413647;-79
2020/12/22 16:38:33;;;;;;;;;38.40;29.90;;;;;0.46;56.39;101892.58;492744;109;385673;-81
2020/12/22 16:39:37;;;;;;;;;34.00;26.40;;;;;0.46;56.39;101892.58;491545;109;384624;-78
2020/12/22 16:40:41;;;;;;;;;37.70;30.50;;;;;0.42;56.46;101890.87;483714;111;384774;-77
2020/12/22 16:41:48;;;;;;;;;40.80;34.20;;;;;0.39;56.79;101890.92;475492;114;384675;-80
2020/12/22 16:42:52;;;;;;;;;36.10;30.10;;;;;0.34;57.07;101895.36;474271;113;384348;-78
2020/12/22 16:43:56;;;;;;;;;42.50;34.90;;;;;0.32;56.53;101897.14;486188;111;386361;-80
2020/12/22 16:45:01;;;;;;;;;45.70;39.40;;;;;0.36;56.82;101891.83;472197;115;385705;-79
2020/12/22 16:46:06;;;;;;;;;41.10;33.50;;;;;0.36;56.82;101891.83;470687;116;384683;-80
2020/12/22 16:47:10;;;;;;;;;46.10;41.10;;;;;0.39;56.95;101891.80;482381;112;386128;-78
2020/12/22 16:48:14;;;;;;;;;42.50;33.50;;;;;0.34;57.16;101892.75;486649;111;384737;-80
2020/12/22 16:49:18;;;;;;;;;39.00;29.40;;;;;0.34;57.16;101892.75;483634;112;384919;-79
2020/12/22 16:50:21;;;;;;;;;37.00;30.80;;;;;0.31;56.72;101890.17;484148;112;385392;-79
2020/12/22 16:51:27;;;;;;;;;35.20;28.80;;;;;0.31;56.72;101890.17;480921;112;384904;-79
2020/12/22 16:52:32;;;;;;;;;37.40;30.60;;;;;0.22;57.49;101885.06;483653;111;385497;-78
2020/12/22 16:53:38;;;;;;;;;29.50;26.90;;;;;0.26;57.54;101889.34;483370;112;383595;-80
2020/12/22 16:54:42;;;;;;;;;37.00;28.20;;;;;0.29;57.30;101894.53;481622;112;383601;-81
2020/12/22 16:55:46;;;;;;;;;54.60;44.10;;;;;0.29;57.30;101894.53;480207;113;386131;-83
2020/12/22 16:56:50;;;;;;;;;46.80;36.50;;;;;0.38;56.66;101886.59;473479;114;387657;-78
2020/12/22 16:57:54;;;;;;;;;34.90;28.10;;;;;0.38;56.07;101884.81;472500;115;391797;-77
2020/12/22 16:58:59;;;;;;;;;31.40;27.90;;;;;0.38;56.53;101883.98;484343;112;385015;-80
2020/12/22 17:00:06;;;;;;;;;39.00;29.00;;;;;0.38;56.53;101883.98;481420;112;390986;-75
2020/12/22 17:01:15;;;;;;;;;42.10;29.70;;;;;0.42;56.16;101890.87;483271;111;386386;-79
2020/12/22 17:02:21;;;;;;;;;38.50;32.40;;;;;0.45;56.67;101890.84;482427;112;385212;-76
2020/12/22 17:03:25;;;;;;;;;23.50;22.70;;;;;0.45;56.67;101890.84;486278;111;383566;-78
2020/12/22 17:04:31;;;;;;;;;34.60;26.60;;;;;0.42;56.19;101875.17;483542;112;384085;-78
2020/12/22 17:05:35;;;;;;;;;34.90;29.30;;;;;0.37;56.87;101879.62;481713;112;383943;-80
2020/12/22 17:06:41;;;;;;;;;43.50;32.70;;;;;0.40;57.04;101877.83;483847;112;384252;-82
2020/12/22 17:07:45;;;;;;;;;33.90;27.20;;;;;0.37;55.91;101874.38;479914;113;385039;-77
2020/12/22 17:08:49;;;;;;;;;42.40;33.40;;;;;0.36;55.88;101877.87;484462;111;385151;-76
2020/12/22 17:09:53;;;;;;;;;37.00;28.30;;;;;0.29;56.04;101881.45;482792;112;383635;-80
2020/12/22 17:10:57;;;;;;;;;46.60;33.10;;;;;0.29;56.04;101881.45;483478;112;384877;-78
2020/12/22 17:12:01;;;;;;;;;39.20;31.50;;;;;0.33;56.35;101880.53;483292;112;384552;-82
2020/12/22 17:13:07;;;;;;;;;41.70;34.20;;;;;0.23;56.72;101889.38;484416;111;385212;-81
2020/12/22 17:14:14;;;;;;;;;61.50;48.30;;;;;0.23;56.72;101889.38;484650;112;387038;-82
2020/12/22 17:15:18;;;;;;;;;43.20;31.40;;;;;0.15;57.06;101879.03;485709;111;386041;-82
2020/12/22 17:16:24;;;;;;;;;46.50;37.70;;;;;0.24;57.03;101896.36;485884;111;386566;-80
2020/12/22 17:17:32;;;;;;;;;47.20;37.00;;;;;0.19;56.57;101885.09;485415;111;385567;-80
2020/12/22 17:18:36;;;;;;;;;64.50;50.10;;;;;0.16;56.58;101885.98;481922;111;387832;-80
2020/12/22 17:19:40;;;;;;;;;49.80;45.50;;;;;0.15;57.44;101888.63;482652;112;387047;-77
2020/12/22 17:20:44;;;;;;;;;67.20;51.90;;;;;0.19;57.25;101891.17;485008;111;387559;-80
2020/12/22 17:21:48;;;;;;;;;61.10;51.60;;;;;0.19;57.25;101891.17;484420;112;386846;-81
2020/12/22 17:22:54;;;;;;;;;59.10;46.80;;;;;0.35;56.24;101891.88;482120;112;387501;-81
2020/12/22 17:24:01;;;;;;;;;61.20;50.20;;;;;0.34;56.51;101893.62;481963;112;387415;-81
2020/12/22 17:25:05;;;;;;;;;56.20;45.80;;;;;0.36;56.52;101896.20;479886;113;386285;-81
2020/12/22 17:26:12;;;;;;;;;59.30;48.50;;;;;0.37;57.33;101895.32;484313;112;386422;-78
2020/12/22 17:27:18;;;;;;;;;39.70;32.40;;;;;0.38;56.71;101889.21;485767;111;385446;-78
2020/12/22 17:28:23;;;;;;;;;47.80;40.90;;;;;0.38;56.71;101889.21;483180;113;386469;-82
2020/12/22 17:29:27;;;;;;;;;39.90;34.70;;;;;0.41;56.26;101890.04;482725;111;384417;-74
2020/12/22 17:30:31;;;;;;;;;43.80;31.90;;;;;0.41;55.60;101889.17;482967;112;385707;-87
2020/12/22 17:31:34;;;;;;;;;30.90;28.80;;;;;0.42;55.52;101886.52;483348;112;384561;-76
2020/12/22 17:32:38;;;;;;;;;36.60;24.40;;;;;0.42;55.52;101886.52;484862;112;393107;-80
2020/12/22 17:33:42;;;;;;;;;28.30;19.70;;;;;0.41;55.84;101883.94;483252;112;390618;-79
2020/12/22 17:34:46;;;;;;;;;28.60;25.30;;;;;0.40;56.19;101885.68;483443;112;383655;-79
2020/12/22 17:35:50;;;;;;;;;42.80;32.70;;;;;0.36;56.47;101886.59;483676;112;385396;-80
2020/12/22 17:36:56;;;;;;;;;36.60;28.40;;;;;0.37;56.06;101883.11;483255;112;395468;-85
2020/12/22 17:38:01;;;;;;;;;38.10;33.00;;;;;0.37;56.06;101883.11;474111;112;385452;-84
2020/12/22 17:39:08;;;;;;;;;40.90;33.40;;;;;0.33;56.45;101885.77;472717;114;384881;-82
2020/12/22 17:40:33;;;;;;;;;52.20;39.10;;;;;0.23;55.81;101881.53;472846;114;387157;-80
2020/12/22 17:41:39;;;;;;;;;59.80;50.70;;;;;0.23;55.81;101881.53;471810;114;386697;-81
2020/12/22 17:42:43;;;;;;;;;65.10;53.90;;;;;0.12;56.01;101880.82;472695;114;387375;-83
2020/12/22 17:43:47;;;;;;;;;65.90;51.90;;;;;0.08;56.16;101879.12;470664;116;387640;-81
2020/12/22 17:44:51;;;;;;;;;72.60;57.30;;;;;0.08;56.16;101879.12;474700;114;388432;-83
2020/12/22 17:45:55;;;;;;;;;76.20;61.20;;;;;0.03;56.85;101883.55;470194;115;387294;-81
2020/12/22 17:46:59;;;;;;;;;70.80;58.00;;;;;0.02;56.48;101884.42;475253;114;386586;-79
2020/12/22 17:48:03;;;;;;;;;76.10;61.80;;;;;0.04;56.88;101886.13;473223;114;386844;-84
2020/12/22 17:49:08;;;;;;;;;72.10;58.90;;;;;0.04;56.88;101886.13;470346;116;386579;-80
2020/12/22 17:50:15;;;;;;;;;73.70;57.70;;;;;0.07;56.83;101885.22;473934;114;387799;-77
2020/12/22 17:51:18;;;;;;;;;70.20;54.60;;;;;0.12;56.71;101891.28;473048;114;386096;-77
2020/12/22 17:52:22;;;;;;;;;80.10;62.20;;;;;0.04;56.91;101882.64;472271;114;388247;-79
2020/12/22 17:53:27;;;;;;;;;75.20;62.10;;;;;0.02;57.38;101887.91;473110;115;386948;-79
2020/12/22 17:54:31;;;;;;;;;71.00;58.40;;;;;0.02;57.38;101887.91;472768;114;387159;-81
2020/12/22 17:55:37;;;;;;;;;76.00;60.50;;;;;0.07;57.27;101883.48;472946;114;387398;-81
2020/12/22 17:56:48;;;;;;;;;78.00;61.70;;;;;0.08;57.01;101876.50;475333;114;388097;-82
2020/12/22 17:58:04;;;;;;;;;69.90;56.60;;;;;0.08;57.01;101876.50;463458;116;387156;-79
2020/12/22 17:59:30;;;;;;;;;63.80;54.20;;;;;0.05;56.94;101873.92;463922;116;385137;-79
2020/12/22 18:00:35;;;;;;;;;69.50;53.50;;;;;0.05;56.94;101873.92;458327;116;388719;-78
2020/12/22 18:01:40;;;;;;;;;79.00;63.00;;;;;-0.02;58.20;101876.62;461673;116;387244;-79
2020/12/22 18:02:44;;;;;;;;;74.90;59.40;;;;;-0.02;58.20;101876.62;469918;116;388592;-83
2020/12/22 18:03:48;;;;;;;;;74.60;61.50;;;;;-0.01;58.02;101875.74;473934;114;386814;-82
2020/12/22 18:04:59;;;;;;;;;78.30;62.70;;;;;0.00;58.73;101877.45;470817;115;387752;-79
2020/12/22 18:06:04;;;;;;;;;78.70;60.20;;;;;0.07;58.21;101873.02;464101;116;388089;-79
2020/12/22 18:07:11;;;;;;;;;76.60;60.00;;;;;0.06;58.31;101878.28;474012;114;389269;-81
2020/12/22 18:08:15;;;;;;;;;78.60;62.90;;;;;0.13;58.07;101872.09;470768;115;387221;-81
2020/12/22 18:09:21;;;;;;;;;81.40;64.20;;;;;0.17;57.28;101874.64;472997;114;389637;-79
2020/12/22 18:10:25;;;;;;;;;76.80;62.10;;;;;0.17;57.28;101874.64;471519;114;387043;-79
2020/12/22 18:11:32;;;;;;;;;83.40;62.00;;;;;0.17;58.27;101869.41;472847;114;390255;-80
2020/12/22 18:12:37;;;;;;;;;79.20;61.60;;;;;0.17;58.27;101869.41;463762;116;389924;-83
2020/12/22 18:13:41;;;;;;;;;79.80;63.40;;;;;0.16;57.92;101866.83;473326;114;387982;-80
2020/12/22 18:14:48;;;;;;;;;78.50;63.30;;;;;0.13;57.88;101864.25;470245;116;387230;-77
2020/12/22 18:15:52;;;;;;;;;83.30;65.40;;;;;0.08;57.90;101863.42;472820;114;387561;-80
2020/12/22 18:16:56;;;;;;;;;76.70;61.60;;;;;0.08;57.90;101863.42;466300;116;386925;-81
2020/12/22 18:18:01;;;;;;;;;76.10;62.20;;;;;0.07;59.01;101862.55;465513;116;387494;-84
2020/12/22 18:19:05;;;;;;;;;82.70;65.40;;;;;-0.04;58.47;101862.70;470943;115;387488;-82
2020/12/22 18:20:10;;;;;;;;;76.60;61.80;;;;;-0.04;58.47;101862.70;474771;114;387395;-85
2020/12/22 18:21:17;;;;;;;;;74.70;59.30;;;;;0.07;59.29;101869.53;474722;114;387611;-80
2020/12/22 18:22:22;;;;;;;;;82.10;63.30;;;;;0.09;59.24;101854.70;473200;114;388035;-81
2020/12/22 18:23:28;;;;;;;;;77.30;63.20;;;;;0.05;59.96;101858.23;470430;116;387370;-82
2020/12/22 18:24:35;;;;;;;;;72.80;60.60;;;;;0.09;58.93;101858.19;474039;114;387381;-80
2020/12/22 18:25:39;;;;;;;;;78.50;60.80;;;;;0.13;59.63;101859.86;473050;114;388734;-79
2020/12/22 18:26:49;;;;;;;;;77.20;62.40;;;;;0.15;59.37;101852.88;470289;116;386622;-79
2020/12/22 18:27:53;;;;;;;;;75.70;61.00;;;;;0.15;59.37;101852.88;473893;114;388363;-80
2020/12/22 18:28:57;;;;;;;;;79.40;61.40;;;;;0.16;58.42;101851.97;470284;115;387941;-76
2020/12/22 18:30:01;;;;;;;;;75.70;60.70;;;;;0.16;58.42;101851.97;464994;116;386364;-79
2020/12/22 18:31:05;;;;;;;;;78.00;62.00;;;;;0.14;57.94;101852.88;461317;118;386407;-83
2020/12/22 18:32:12;;;;;;;;;66.40;55.70;;;;;0.16;58.02;101851.13;470510;115;386793;-82
2020/12/22 18:33:17;;;;;;;;;69.70;56.50;;;;;0.17;58.07;101845.86;474040;114;388320;-78
2020/12/22 18:34:23;;;;;;;;;77.10;59.50;;;;;0.17;58.07;101845.86;469493;116;387725;-78
2020/12/22 18:35:27;;;;;;;;;61.00;48.10;;;;;0.08;57.53;101845.98;464333;116;387743;-82
2020/12/22 18:36:31;;;;;;;;;75.00;57.10;;;;;0.04;57.97;101846.03;474440;114;388107;-76
2020/12/22 18:37:36;;;;;;;;;71.80;57.40;;;;;0.02;58.11;101850.42;472746;114;388108;-77
2020/12/22 18:38:40;;;;;;;;;71.70;59.40;;;;;0.02;58.11;101850.42;477587;113;386509;-79
2020/12/22 18:39:44;;;;;;;;;77.60;61.30;;;;;0.02;57.77;101855.66;482743;111;388303;-85
2020/12/22 18:40:49;;;;;;;;;74.10;60.60;;;;;0.06;57.68;101852.12;481287;112;387024;-84
2020/12/22 18:41:53;;;;;;;;;78.80;60.90;;;;;0.05;58.22;101853.00;482689;112;388701;-79
2020/12/22 18:42:56;;;;;;;;;78.40;60.20;;;;;0.08;57.86;101847.73;481565;112;386955;-78
2020/12/22 18:44:03;;;;;;;;;73.10;59.80;;;;;0.12;57.62;101852.91;481819;112;386883;-81
2020/12/22 18:45:07;;;;;;;;;78.30;62.60;;;;;0.12;57.62;101852.91;482294;112;387807;-82
2020/12/22 18:46:13;;;;;;;;;77.80;61.90;;;;;0.12;57.97;101857.28;481225;112;387386;-78
2020/12/22 18:47:17;;;;;;;;;76.50;64.20;;;;;0.12;57.97;101857.28;482851;112;386507;-82
2020/12/22 18:48:22;;;;;;;;;74.70;63.40;;;;;0.11;58.32;101855.53;479889;112;386954;-77
2020/12/22 18:49:29;;;;;;;;;64.30;50.80;;;;;0.15;57.71;101852.00;480016;112;386942;-76
2020/12/22 18:51:27;;;;;;;;;49.30;37.60;;;;;0.14;57.25;101855.50;488769;108;421193;-76
2020/12/22 18:52:34;;;;;;;;;40.60;34.40;;;;;0.14;57.25;101855.50;486162;111;385265;-78
2020/12/22 18:53:41;;;;;;;;;76.70;55.50;;;;;0.16;57.43;101856.36;473961;114;388929;-77
2020/12/22 18:54:46;;;;;;;;;61.60;47.70;;;;;0.13;57.90;101844.16;477960;113;387004;-76
2020/12/22 18:55:50;;;;;;;;;75.40;59.10;;;;;0.13;57.90;101844.16;478099;113;388244;-80
2020/12/22 18:56:54;;;;;;;;;71.40;58.40;;;;;0.16;58.53;101851.13;474162;113;387302;-83
2020/12/22 18:57:58;;;;;;;;;67.20;56.20;;;;;0.17;58.40;101852.84;476619;114;386602;-77
2020/12/22 18:59:02;;;;;;;;;74.10;58.10;;;;;0.21;58.11;101849.31;476552;114;387049;-79
2020/12/22 19:00:06;;;;;;;;;74.40;59.90;;;;;0.28;57.82;101851.84;475478;114;388775;-83
2020/12/22 19:01:10;;;;;;;;;77.90;61.20;;;;;0.28;57.82;101853.58;477315;113;387969;-83
2020/12/22 19:02:14;;;;;;;;;76.30;61.30;;;;;0.28;57.82;101853.58;476821;113;387757;-78
2020/12/22 19:03:18;;;;;;;;;63.40;55.50;;;;;0.30;57.82;101851.80;476794;114;385049;-79
2020/12/22 19:04:22;;;;;;;;;79.50;59.30;;;;;0.30;57.82;101851.80;477112;113;387028;-81
2020/12/22 19:05:26;;;;;;;;;66.80;55.60;;;;;0.28;57.43;101850.97;475616;114;387814;-77
2020/12/22 19:06:30;;;;;;;;;65.50;51.20;;;;;0.26;57.48;101852.72;476920;114;387879;-79
2020/12/22 19:07:33;;;;;;;;;63.20;49.60;;;;;0.28;58.05;101850.97;477259;113;388904;-76
2020/12/22 19:08:38;;;;;;;;;62.20;49.90;;;;;0.25;57.85;101849.26;476151;113;386958;-78
2020/12/22 19:09:42;;;;;;;;;55.50;43.10;;;;;0.27;58.39;101849.22;476237;114;387789;-78
2020/12/22 19:10:46;;;;;;;;;55.60;48.40;;;;;0.27;58.39;101849.22;476948;113;386910;-79
2020/12/22 19:11:50;;;;;;;;;58.20;48.90;;;;;0.24;57.63;101850.13;477439;113;385758;-79
2020/12/22 19:12:54;;;;;;;;;62.60;50.30;;;;;0.23;58.55;101851.01;475809;113;386595;-82
2020/12/22 19:14:01;;;;;;;;;68.30;54.80;;;;;0.17;58.48;101847.61;468847;116;386982;-81
2020/12/22 19:15:05;;;;;;;;;71.00;55.10;;;;;0.17;58.48;101847.61;466086;113;387153;-78
2020/12/22 19:16:09;;;;;;;;;72.10;56.60;;;;;0.16;57.98;101844.12;478508;113;386807;-78
2020/12/22 19:17:14;;;;;;;;;76.30;58.50;;;;;0.21;57.81;101846.69;476334;114;388413;-78
2020/12/22 19:18:21;;;;;;;;;73.50;57.10;;;;;0.24;57.96;101847.52;469171;116;388246;-76
2020/12/22 19:19:25;;;;;;;;;73.60;55.60;;;;;0.24;57.96;101847.52;467692;116;386559;-74
2020/12/22 19:20:29;;;;;;;;;77.90;57.30;;;;;0.25;57.83;101843.16;476080;113;388087;-75
2020/12/22 19:21:35;;;;;;;;;68.80;56.90;;;;;0.26;58.16;101842.25;477187;113;386886;-73
2020/12/22 19:22:38;;;;;;;;;80.50;56.60;;;;;0.24;57.88;101838.80;475016;114;390013;-74
2020/12/22 19:23:43;;;;;;;;;64.30;54.30;;;;;0.24;56.94;101846.65;477266;114;386988;-80
2020/12/22 19:24:47;;;;;;;;;68.20;57.40;;;;;0.24;56.94;101846.65;475196;113;387134;-79
2020/12/22 19:25:51;;;;;;;;;68.20;53.70;;;;;0.17;58.02;101837.14;476050;113;387451;-78
2020/12/22 19:26:55;;;;;;;;;66.60;55.00;;;;;0.16;58.13;101838.05;476039;113;386634;-78
2020/12/22 19:27:59;;;;;;;;;75.50;58.60;;;;;0.16;58.13;101838.05;477962;113;387382;-75
2020/12/22 19:29:03;;;;;;;;;82.20;63.90;;;;;0.15;58.51;101839.80;476138;113;387137;-76
2020/12/22 19:30:06;;;;;;;;;79.00;61.10;;;;;-0.03;58.90;101812.11;475086;113;388004;-77
2020/12/22 19:31:13;;;;;;;;;80.10;64.70;;;;;-0.55;58.62;101714.33;476228;113;387727;-75
2020/12/22 19:32:17;;;;;;;;;76.80;62.30;;;;;0.20;58.14;101834.48;476451;114;388117;-75
2020/12/22 19:33:21;;;;;;;;;71.45;60.27;;;;;0.21;57.66;101829.25;477206;113;392792;-72
2020/12/22 19:34:24;;;;;;;;;79.50;61.00;;;;;0.21;57.66;101829.25;474743;113;389071;-74
2020/12/22 19:35:29;;;;;;;;;68.60;57.00;;;;;0.21;58.06;101834.48;476647;114;387359;-74
2020/12/22 19:36:33;;;;;;;;;73.50;59.70;;;;;0.16;58.16;101830.20;477259;113;387774;-76
2020/12/22 19:37:37;;;;;;;;;79.70;62.30;;;;;0.16;58.16;101830.20;473273;114;387734;-78
2020/12/22 19:38:41;;;;;;;;;75.20;60.60;;;;;0.14;58.62;101839.80;476650;114;387336;-77
2020/12/22 19:39:46;;;;;;;;;78.50;60.20;;;;;0.17;57.86;101830.16;476582;113;389279;-78
2020/12/22 19:40:50;;;;;;;;;68.90;55.80;;;;;0.17;57.86;101830.16;475086;113;386602;-76
2020/12/22 19:41:59;;;;;;;;;75.40;56.60;;;;;0.16;57.88;101832.82;475044;114;387656;-79
2020/12/22 19:43:03;;;;;;;;;75.90;60.40;;;;;0.16;57.88;101832.82;475926;113;387137;-78
2020/12/22 19:44:06;;;;;;;;;69.80;56.20;;;;;0.16;57.99;101827.59;475183;114;386195;-76
2020/12/22 19:45:11;;;;;;;;;68.80;56.10;;;;;0.08;57.38;101821.58;476997;114;386733;-77
2020/12/22 19:46:16;;;;;;;;;73.60;58.30;;;;;0.03;58.01;101821.66;477012;114;388202;-78
2020/12/22 19:47:23;;;;;;;;;75.70;59.10;;;;;0.04;58.46;101817.26;476393;114;387972;-82
2020/12/22 19:48:27;;;;;;;;;83.50;62.80;;;;;0.05;58.93;101819.87;474945;113;390610;-80
2020/12/22 19:49:31;;;;;;;;;76.90;63.80;;;;;0.11;58.37;101813.69;472190;115;387745;-79
2020/12/22 19:50:39;;;;;;;;;79.50;64.70;;;;;0.10;57.90;101815.43;470226;115;387986;-78
2020/12/22 19:51:43;;;;;;;;;81.10;63.80;;;;;0.11;58.13;101811.94;474878;113;389707;-80
2020/12/22 19:52:47;;;;;;;;;70.80;57.60;;;;;0.11;58.50;101816.30;473985;114;385932;-75
2020/12/22 19:53:50;;;;;;;;;76.20;61.50;;;;;0.11;58.50;101816.30;476766;113;388772;-77
2020/12/22 19:54:54;;;;;;;;;80.30;64.00;;;;;0.05;58.12;101817.25;474755;114;387871;-75
2020/12/22 19:55:58;;;;;;;;;81.00;62.30;;;;;0.03;58.94;101811.19;476612;113;390349;-76
2020/12/22 19:57:02;;;;;;;;;80.80;61.40;;;;;0.03;58.94;101811.19;476528;114;388146;-75
2020/12/22 19:58:06;;;;;;;;;80.30;63.50;;;;;0.05;59.08;101811.16;474088;114;386776;-74
2020/12/22 19:59:11;;;;;;;;;77.30;61.30;;;;;0.00;58.95;101806.84;474393;114;387913;-76
2020/12/22 20:00:17;;;;;;;;;76.50;62.20;;;;;0.02;58.40;101809.45;474181;114;387443;-76
2020/12/22 20:01:21;;;;;;;;;77.10;62.20;;;;;-0.02;58.56;101806.00;474766;114;388120;-75
2020/12/22 20:02:24;;;;;;;;;81.10;64.90;;;;;0.02;59.10;101808.58;474705;113;388842;-76
2020/12/22 20:03:29;;;;;;;;;79.00;61.30;;;;;0.02;59.10;101808.58;477875;113;388428;-75
2020/12/22 20:04:33;;;;;;;;;80.40;64.10;;;;;0.05;59.48;101813.77;475353;114;389822;-76
2020/12/22 20:05:37;;;;;;;;;83.70;65.30;;;;;0.08;59.16;101817.21;477575;113;389276;-75
2020/12/22 20:06:41;;;;;;;;;80.00;64.60;;;;;0.03;58.72;101816.42;476178;113;388468;-75
2020/12/22 20:07:45;;;;;;;;;71.40;61.40;;;;;0.07;58.27;101818.09;475086;113;386464;-75
2020/12/22 20:08:50;;;;;;;;;78.00;60.60;;;;;0.07;58.27;101818.09;465871;116;388519;-74
2020/12/22 20:09:56;;;;;;;;;82.70;63.60;;;;;0.00;58.33;101825.15;466112;115;389407;-76
2020/12/22 20:11:02;;;;;;;;;85.50;65.00;;;;;0.00;58.33;101825.15;475069;114;390183;-75
2020/12/22 20:12:07;;;;;;;;;85.90;67.70;;;;;-0.01;58.28;101826.05;474011;114;389916;-76
2020/12/22 20:13:11;;;;;;;;;87.70;66.80;;;;;0.00;58.62;101822.53;473487;114;390222;-75
2020/12/22 20:14:14;;;;;;;;;81.70;64.50;;;;;0.00;58.62;101822.53;477214;113;388884;-76
2020/12/22 20:15:18;;;;;;;;;85.20;68.40;;;;;-0.02;58.76;101820.83;476320;113;388533;-75
2020/12/22 20:16:30;;;;;;;;;84.64;67.36;;;;;0.01;59.35;101812.94;476384;113;393273;-76
2020/12/22 20:17:33;;;;;;;;;82.80;64.60;;;;;0.01;59.35;101812.94;473321;114;389921;-76
2020/12/22 20:18:38;;;;;;;;;82.70;62.60;;;;;-0.07;58.81;101820.03;475324;114;388183;-75
2020/12/22 20:19:42;;;;;;;;;78.90;64.40;;;;;-0.07;58.31;101823.52;476431;114;387783;-77
2020/12/22 20:20:49;;;;;;;;;84.70;66.50;;;;;-0.07;58.31;101823.52;477188;113;389642;-76
2020/12/22 20:21:56;;;;;;;;;76.20;62.40;;;;;-0.05;58.21;101820.86;474587;113;388404;-77
2020/12/22 20:23:01;;;;;;;;;71.60;59.10;;;;;-0.10;58.31;101820.94;475842;113;387041;-77
2020/12/22 20:24:05;;;;;;;;;77.40;63.20;;;;;-0.06;58.42;101826.97;466398;115;387449;-76
2020/12/22 20:25:11;;;;;;;;;73.10;60.80;;;;;-0.06;58.42;101826.97;466905;116;386708;-74
2020/12/22 20:26:15;;;;;;;;;71.20;58.60;;;;;-0.08;58.69;101829.63;474154;114;387233;-75
2020/12/22 20:27:19;;;;;;;;;68.20;57.20;;;;;-0.08;58.69;101829.63;476781;113;387393;-76
2020/12/22 20:28:24;;;;;;;;;68.10;56.40;;;;;-0.07;58.25;101826.13;476476;113;386957;-76
2020/12/22 20:29:28;;;;;;;;;70.40;57.50;;;;;-0.10;58.46;101827.92;474324;114;386919;-76
2020/12/22 20:30:32;;;;;;;;;71.20;57.90;;;;;-0.15;58.43;101827.09;474639;113;386082;-76
2020/12/22 20:31:36;;;;;;;;;67.70;54.10;;;;;-0.10;58.70;101834.02;474868;113;387658;-76
2020/12/22 20:32:40;;;;;;;;;73.60;57.40;;;;;-0.07;59.15;101826.13;477760;112;388074;-75
2020/12/22 20:33:50;;;;;;;;;59.80;48.60;;;;;-0.07;59.15;101826.13;470875;115;387190;-78
2020/12/22 20:34:54;;;;;;;;;68.20;56.40;;;;;-0.01;58.04;101841.75;469100;115;386817;-75
2020/12/22 20:36:00;;;;;;;;;68.80;56.80;;;;;-0.01;58.04;101841.75;475421;114;387128;-76
2020/12/22 20:37:04;;;;;;;;;70.50;57.80;;;;;-0.01;57.81;101836.52;474100;114;387050;-75
2020/12/22 20:38:09;;;;;;;;;71.50;56.30;;;;;-0.10;57.93;101828.78;474564;114;387638;-77
2020/12/22 20:39:30;;;;;;;;;74.00;59.80;;;;;-0.14;58.24;101826.22;473850;114;387069;-76
2020/12/22 20:40:35;;;;;;;;;61.70;51.60;;;;;-0.14;58.24;101826.22;472671;114;387133;-75
2020/12/22 20:41:41;;;;;;;;;62.20;51.40;;;;;-0.26;59.54;101827.23;473962;114;386351;-74
2020/12/22 20:42:45;;;;;;;;;56.60;49.00;;;;;-0.26;59.54;101827.23;474285;114;386435;-75
2020/12/22 20:43:49;;;;;;;;;65.90;54.70;;;;;-0.25;58.40;101823.72;476794;113;386765;-75
2020/12/22 20:44:52;;;;;;;;;41.50;32.60;;;;;-0.21;58.36;101808.86;475199;114;384984;-74
2020/12/22 20:45:56;;;;;;;;;69.70;56.70;;;;;-0.18;58.98;101816.67;476725;114;386773;-75
2020/12/22 20:47:00;;;;;;;;;61.00;48.10;;;;;-0.20;58.20;101821.06;477030;113;386927;-77
2020/12/22 20:48:04;;;;;;;;;68.40;54.30;;;;;-0.17;58.35;101818.41;475833;114;388016;-76
2020/12/22 20:49:08;;;;;;;;;65.10;52.50;;;;;-0.17;58.35;101818.41;474587;114;386978;-78
2020/12/22 20:50:14;;;;;;;;;71.20;56.60;;;;;-0.17;58.80;101821.89;475122;114;386862;-75
2020/12/22 20:51:18;;;;;;;;;66.00;53.80;;;;;-0.22;58.54;101817.58;476243;114;386429;-77
2020/12/22 20:52:22;;;;;;;;;62.00;49.90;;;;;-0.22;58.54;101817.58;474040;114;386408;-76
2020/12/22 20:53:26;;;;;;;;;69.82;56.73;;;;;-0.21;58.98;101812.34;474107;114;386961;-77
2020/12/22 20:54:30;;;;;;;;;71.10;56.50;;;;;-0.23;59.30;101810.64;477268;113;386102;-77
2020/12/22 20:55:35;;;;;;;;;72.70;58.50;;;;;-0.23;59.30;101810.64;472384;114;388195;-77
2020/12/22 20:56:41;;;;;;;;;70.20;58.10;;;;;-0.20;59.05;101806.25;474920;114;387139;-77
2020/12/22 20:57:45;;;;;;;;;59.20;52.00;;;;;-0.20;58.96;101813.22;475552;114;386007;-77
2020/12/22 20:58:49;;;;;;;;;71.40;56.60;;;;;-0.18;59.27;101820.16;474778;114;387089;-77
2020/12/22 20:59:53;;;;;;;;;70.80;53.70;;;;;-0.18;59.03;101814.05;472662;114;387806;-78
2020/12/22 21:00:56;;;;;;;;;66.40;52.90;;;;;-0.18;59.03;101814.05;469329;115;387305;-79
2020/12/22 21:02:00;;;;;;;;;64.10;52.50;;;;;-0.14;58.60;101816.63;471488;115;386269;-78
2020/12/22 21:03:04;;;;;;;;;65.60;54.50;;;;;-0.13;58.72;101818.33;475012;114;386340;-78
2020/12/22 21:04:09;;;;;;;;;62.10;52.00;;;;;-0.13;58.72;101818.33;474210;114;386877;-76
2020/12/22 21:05:13;;;;;;;;;67.40;55.10;;;;;-0.18;59.09;101825.38;471924;114;386364;-76
2020/12/22 21:06:17;;;;;;;;;70.90;54.40;;;;;-0.18;59.09;101825.38;474660;114;387973;-76
2020/12/22 21:07:21;;;;;;;;;69.80;53.50;;;;;-0.17;58.60;101821.89;476484;113;387231;-77
2020/12/22 21:08:25;;;;;;;;;63.90;51.40;;;;;-0.17;58.16;101821.02;475364;114;386610;-77
2020/12/22 21:09:28;;;;;;;;;60.70;50.90;;;;;-0.14;58.48;101816.63;469017;115;386901;-76
2020/12/22 21:10:35;;;;;;;;;63.30;49.50;;;;;-0.14;58.48;101816.63;466936;116;388228;-77
2020/12/22 21:11:39;;;;;;;;;58.30;50.20;;;;;-0.16;59.27;101813.14;475100;114;386330;-77
2020/12/22 21:12:45;;;;;;;;;66.00;54.00;;;;;-0.16;59.27;101813.14;477339;113;387233;-77
2020/12/22 21:13:49;;;;;;;;;72.10;56.50;;;;;-0.16;59.42;101813.14;477072;113;388430;-76
2020/12/22 21:14:53;;;;;;;;;59.50;48.10;;;;;-0.18;59.38;101807.08;474558;114;386480;-76
2020/12/22 21:15:57;;;;;;;;;56.30;45.50;;;;;-0.19;58.44;101813.19;476591;114;385725;-76
2020/12/22 21:17:01;;;;;;;;;66.60;54.00;;;;;-0.19;58.44;101813.19;476637;114;386875;-75
2020/12/22 21:18:05;;;;;;;;;68.00;54.40;;;;;-0.12;59.63;101813.98;476784;114;387180;-76
2020/12/22 21:19:09;;;;;;;;;58.80;49.00;;;;;-0.16;59.71;101818.38;475246;114;387036;-77
2020/12/22 21:20:13;;;;;;;;;63.20;51.90;;;;;-0.16;59.71;101818.38;472416;114;387707;-76
2020/12/22 21:21:21;;;;;;;;;73.80;57.30;;;;;-0.15;59.74;101820.12;477085;114;386779;-77
2020/12/22 21:22:25;;;;;;;;;65.70;54.50;;;;;-0.16;59.46;101817.53;475837;113;386561;-76
2020/12/22 21:23:29;;;;;;;;;64.00;53.60;;;;;-0.13;59.55;101822.73;474618;114;386185;-76
2020/12/22 21:24:33;;;;;;;;;63.40;53.10;;;;;-0.11;59.58;101820.95;474002;114;387191;-76
2020/12/22 21:25:37;;;;;;;;;50.70;45.00;;;;;-0.13;59.66;101820.95;475648;114;384755;-78
2020/12/22 21:26:40;;;;;;;;;68.00;57.40;;;;;-0.12;59.64;101821.82;475653;113;386540;-77
2020/12/22 21:27:44;;;;;;;;;58.70;48.30;;;;;-0.12;59.64;101821.82;475342;114;386961;-75
2020/12/22 21:28:48;;;;;;;;;71.70;55.90;;;;;-0.17;60.96;101810.56;474571;114;388186;-77
2020/12/22 21:29:52;;;;;;;;;70.80;57.10;;;;;-0.17;60.96;101810.56;475735;114;387406;-77
2020/12/22 21:30:56;;;;;;;;;72.50;57.40;;;;;-0.19;60.28;101813.19;476245;113;387463;-75
2020/12/22 21:32:01;;;;;;;;;67.50;55.90;;;;;-0.19;60.28;101813.19;474768;114;386360;-77